Flag for USA

Past Weather in 34°17'30.6"N, 111°39'39.4"W, USA — Yesterday and Last 2 Weeks

Currently: 68 °F. Sunny. (Weather station: Payson, USA). See more current weather

Past Weather in 34°17'30.6"N, 111°39'39.4"W — Graph

°F

34°17'30.6"N, 111°39'39.4"W Temperature Yesterday

Maximum temperature yesterday: 75 °F (at 4:15 pm)
Minimum temperature yesterday: 50 °F (at 4:35 am)
Average temperature yesterday: 64 °F

High & Low Weather Summary for the Past Weeks

 TemperatureHumidityPressure
High79 °F (Apr 21, 3:35 pm)65% (Apr 16, 4:55 am)30.20 "Hg (Apr 16, 4:55 am)
Low37 °F (Apr 16, 4:55 am)10% (Apr 11, 5:35 pm)29.95 "Hg (Apr 15, 2:55 am)
Average60 °F26%30.10 "Hg
* Reported Apr 9 10:15 am — Apr 24 10:35 am, 34°17'30.6"N, 111°39'39.4"W. Weather by CustomWeather, © 2024

Note: Actual official high and low records may vary slightly from our data, if they occured in-between our weather recording intervals... More about our weather records

34°17'30.6"N, 111°39'39.4"W Weather History for the Previous 24 Hours

Scroll right to see more
 ConditionsComfort  
Time TempWeatherWind HumidityBarometerVisibility
10:35 am
Wed, Apr 24
66 °FSunny.12 mph21%30.13 "Hg10 mi
10:15 am66 °FSunny.10 mph19%30.14 "Hg10 mi
9:55 am66 °FSunny.7 mph22%30.14 "Hg10 mi
9:35 am66 °FSunny.9 mph19%30.14 "Hg10 mi
9:15 am66 °FSunny.6 mph18%30.14 "Hg10 mi
8:55 am64 °FSunny.8 mph19%30.13 "Hg10 mi
8:35 am64 °FSunny.6 mph22%30.13 "Hg10 mi
8:15 am63 °FSunny.7 mph24%30.13 "Hg10 mi
7:55 am61 °FSunny.3 mph27%30.12 "Hg10 mi
7:35 am59 °FSunny.No wind31%30.13 "Hg8 mi
7:15 am54 °FSunny.No wind41%30.12 "Hg4 mi
6:15 am50 °FSunny.No wind40%30.11 "Hg4 mi
5:55 am50 °FSunny.No wind40%30.11 "Hg5 mi
5:35 am48 °FClear.No wind43%30.10 "Hg4 mi
5:15 am48 °FClear.No wind43%30.10 "Hg4 mi
4:55 am48 °FClear.No wind43%30.09 "Hg3 mi
4:35 am50 °FClear.No wind40%30.09 "Hg4 mi
3:55 am54 °FClear.5 mph35%30.09 "Hg10 mi
3:35 am52 °FClear.5 mph38%30.10 "Hg5 mi
3:15 am50 °FClear.No wind40%30.10 "Hg3 mi
2:55 am52 °FClear.No wind38%30.10 "Hg6 mi
2:35 am52 °FClear.No wind38%30.10 "Hg7 mi
2:15 am54 °FClear.No wind35%30.11 "Hg9 mi
1:35 am55 °FClear.No wind33%30.12 "Hg10 mi
1:15 am57 °FClear.5 mph29%30.12 "Hg10 mi
12:35 am59 °FClear.No wind27%30.12 "Hg10 mi
12:15 am59 °FClear.No wind27%30.12 "Hg10 mi
11:35 pm
Tue, Apr 23
55 °FClear.No wind33%30.12 "Hg8 mi
11:15 pm55 °FClear.No wind33%30.11 "Hg10 mi
10:55 pm57 °FClear.No wind31%30.11 "Hg10 mi
10:35 pm59 °FClear.No wind29%30.10 "Hg10 mi
10:15 pm59 °FClear.No wind29%30.10 "Hg10 mi
9:55 pm61 °FClear.3 mph27%30.10 "Hg10 mi
9:35 pm63 °FClear.No wind24%30.10 "Hg10 mi
9:15 pm63 °FClear.3 mph24%30.10 "Hg10 mi
8:55 pm63 °FClear.No wind24%30.10 "Hg10 mi
8:35 pm63 °FClear.No wind24%30.09 "Hg10 mi
8:15 pm63 °FClear.No wind24%30.09 "Hg10 mi
7:55 pm63 °FClear.No wind25%30.08 "Hg10 mi
7:35 pm63 °FClear.No wind25%30.08 "Hg10 mi
7:15 pm66 °FClear.No wind22%30.07 "Hg10 mi
6:35 pm70 °FSunny.6 mph18%30.07 "Hg10 mi
6:15 pm72 °FSunny.9 mph15%30.07 "Hg10 mi
5:55 pm72 °FSunny.8 mph15%30.07 "Hg10 mi
5:35 pm73 °FSunny.7 mph14%30.07 "Hg10 mi
5:15 pm73 °FSunny.5 mph14%30.07 "Hg10 mi
4:55 pm73 °FSunny.14 mph15%30.07 "Hg10 mi
4:35 pm75 °FSunny.12 mph14%30.07 "Hg10 mi
4:15 pm75 °FSunny.9 mph14%30.07 "Hg10 mi
3:35 pm73 °FSunny.8 mph15%30.07 "Hg10 mi
3:15 pm73 °FSunny.12 mph16%30.08 "Hg10 mi
2:55 pm73 °FSunny.12 mph17%30.08 "Hg10 mi
2:35 pm73 °FSunny.5 mph17%30.09 "Hg10 mi
2:15 pm73 °FSunny.12 mph16%30.09 "Hg10 mi
1:35 pm73 °FSunny.8 mph15%30.10 "Hg10 mi
1:15 pm72 °FSunny.12 mph17%30.10 "Hg10 mi
12:35 pm72 °FSunny.10 mph17%30.11 "Hg10 mi
12:15 pm70 °FSunny.8 mph20%30.11 "Hg10 mi
11:55 am72 °FSunny.8 mph15%30.12 "Hg10 mi
11:35 am70 °FSunny.9 mph20%30.12 "Hg10 mi
11:15 am70 °FSunny.12 mph18%30.13 "Hg10 mi
Weather by CustomWeather, © 2024

See weather overview